Thursday, December 18, 2014, 12:36 AM EST
Back to Local

KCXY, Harrisburg Capital City

Location: New Cumberland, PA, United States Lat: 40.217
Local Time: 12:36 AM EST ( 5:36 GMT) Lon: -76.85
Time Zone: US/Eastern Elev: 347 ft

Show me the last for .
Show Decoded

2014-12-17 23:56 METAR KCXY 180456Z AUTO 31014G21KT 10SM OVC044 03/M06 A3003 RMK AO2 SLP172
                 T00281061 401000028 =
2014-12-17 22:56 METAR KCXY 180356Z AUTO 31017G26KT 10SM OVC044 03/M06 A3003 RMK AO2 PK WND
                 31028/0344 SLP174 T00331061 =
2014-12-17 21:56 METAR KCXY 180256Z AUTO 29010G19KT 10SM OVC042 03/M06 A3003 RMK AO2 SLP172
                 T00331056 50004 =
2014-12-17 20:56 METAR KCXY 180156Z AUTO 29012KT 10SM OVC042 03/M06 A3003 RMK AO2 SLP173
                 T00331056 =
2014-12-17 19:56 METAR KCXY 180056Z 30013G18KT 10SM BKN045 04/M06 A3002 RMK AO2 SLP170 T00391056
                 =
2014-12-17 18:56 METAR KCXY 172356Z 32010KT 10SM BKN039 OVC048 05/M04 A3002 RMK AO2 SLP168
                 T00501039 10083 20050 53015 =
2014-12-17 17:56 METAR KCXY 172256Z 27011G17KT 10SM OVC044 05/M03 A2999 RMK AO2 SLP159 T00501028
                 =
2014-12-17 16:56 METAR KCXY 172156Z 29013G17KT 10SM BKN048 06/M03 A2999 RMK AO2 SLP158 T00561028
                 =
2014-12-17 15:56 METAR KCXY 172056Z 27012G20KT 10SM BKN050 07/M03 A2997 RMK AO2 SLP152 T00671028
                 51011 =
2014-12-17 14:56 METAR KCXY 171956Z 26011G21KT 10SM BKN040 OVC048 07/M02 A2997 RMK AO2 PK WND
                 28026/1901 SLP151 T00671017 =
2014-12-17 13:56 METAR KCXY 171856Z 27010KT 10SM OVC041 08/M01 A2995 RMK AO2 PK WND 27026/1839
                 SLP145 T00781006 =
2014-12-17 12:56 METAR KCXY 171756Z 27013G20KT 10SM OVC041 08/00 A2994 RMK AO2 SLP141 T00830000
                 10100 20061 55005 =
2014-12-17 11:56 METAR KCXY 171656Z 29015G21KT 10SM BKN038 BKN046 OVC055 09/02 A2993 RMK AO2
                 SLP139 T00940017 =
2014-12-17 09:56 METAR KCXY 171456Z 27011KT 10SM BKN039 BKN050 09/03 A2995 RMK AO2 SLP145
                 T00890033 52017 =
2014-12-17 08:56 METAR KCXY 171356Z 27004KT 10SM BKN039 08/04 A2994 RMK AO2 SLP141 T00780039 =
2014-12-17 07:56 METAR KCXY 171256Z 27003KT 10SM BKN041 07/03 A2992 RMK AO2 SLP134 T00670033 =
2014-12-17 06:56 METAR KCXY 171156Z 26005KT 10SM OVC035 06/04 A2990 RMK AO2 SLP129 70017
                 T00610039 10067 20056 53005 =
2014-12-17 05:56 METAR KCXY 171056Z AUTO 27004KT 7SM OVC032 06/04 A2990 RMK AO2 SLP128 T00610044
                 =
2014-12-17 04:56 METAR KCXY 170956Z AUTO 27004KT 5SM BR OVC034 06/04 A2988 RMK AO2 SLP122
                 T00610044 =
2014-12-17 03:56 METAR KCXY 170856Z AUTO 27005KT 4SM BR OVC034 06/04 A2989 RMK AO2 SLP124
                 T00560044 51004 =
2014-12-17 02:56 METAR KCXY 170756Z AUTO 27004KT 3SM BR OVC039 06/05 A2989 RMK AO2 SLP123
                 T00560050 =
2014-12-17 01:56 METAR KCXY 170656Z AUTO 28005KT 3SM BR SCT006 OVC039 06/05 A2988 RMK AO2 SLP122
                 T00610050 =
2014-12-17 01:40 METAR KCXY 170640Z AUTO 28005KT 3SM BR SCT006 OVC040 06/05 A2988 RMK AO2
                 T00560050 =
2014-12-17 00:56 METAR KCXY 170556Z AUTO 28003KT 3SM BR OVC005 06/05 A2988 RMK AO2 SLP120 60002
                 T00610050 10061 20056 58003 =

Support USWX by starting your Amazon purchase here.